sensor_id;sensor_type;location;lat;lon;timestamp;temperature;humidity
31038;DHT22;17702;47.590;7.666;2022-07-03T00:01:31;17.50;83.20
31038;DHT22;17702;47.590;7.666;2022-07-03T00:03:57;17.50;83.40
31038;DHT22;17702;47.590;7.666;2022-07-03T00:06:23;17.50;83.40
31038;DHT22;17702;47.590;7.666;2022-07-03T00:08:49;17.50;82.80
31038;DHT22;17702;47.590;7.666;2022-07-03T00:11:15;17.50;83.50
31038;DHT22;17702;47.590;7.666;2022-07-03T00:13:40;17.60;83.20
31038;DHT22;17702;47.590;7.666;2022-07-03T00:16:06;17.60;83.00
31038;DHT22;17702;47.590;7.666;2022-07-03T00:18:32;17.60;82.90
31038;DHT22;17702;47.590;7.666;2022-07-03T00:21:03;17.50;82.70
31038;DHT22;17702;47.590;7.666;2022-07-03T00:23:39;17.50;83.00
31038;DHT22;17702;47.590;7.666;2022-07-03T00:26:05;17.60;82.80
31038;DHT22;17702;47.590;7.666;2022-07-03T00:28:32;17.60;82.90
31038;DHT22;17702;47.590;7.666;2022-07-03T00:30:58;17.70;82.50
31038;DHT22;17702;47.590;7.666;2022-07-03T00:33:27;17.70;82.50
31038;DHT22;17702;47.590;7.666;2022-07-03T00:35:54;17.80;82.30
31038;DHT22;17702;47.590;7.666;2022-07-03T00:38:22;17.60;82.10
31038;DHT22;17702;47.590;7.666;2022-07-03T00:40:48;17.50;82.80
31038;DHT22;17702;47.590;7.666;2022-07-03T00:43:16;17.40;82.40
31038;DHT22;17702;47.590;7.666;2022-07-03T00:45:48;17.30;82.60
31038;DHT22;17702;47.590;7.666;2022-07-03T00:48:15;17.30;83.20
31038;DHT22;17702;47.590;7.666;2022-07-03T00:50:48;17.30;83.00
31038;DHT22;17702;47.590;7.666;2022-07-03T00:53:27;17.20;83.20
31038;DHT22;17702;47.590;7.666;2022-07-03T00:55:55;17.10;83.00
31038;DHT22;17702;47.590;7.666;2022-07-03T00:58:20;17.00;83.10
31038;DHT22;17702;47.590;7.666;2022-07-03T01:00:49;17.00;83.50
31038;DHT22;17702;47.590;7.666;2022-07-03T01:03:17;16.90;83.50
31038;DHT22;17702;47.590;7.666;2022-07-03T01:05:49;17.00;83.90
31038;DHT22;17702;47.590;7.666;2022-07-03T01:08:36;17.00;83.90
31038;DHT22;17702;47.590;7.666;2022-07-03T01:27:57;16.90;83.30
31038;DHT22;17702;47.590;7.666;2022-07-03T01:30:25;17.00;83.00
31038;DHT22;17702;47.590;7.666;2022-07-03T01:33:09;17.00;83.50
31038;DHT22;17702;47.590;7.666;2022-07-03T01:35:41;16.90;83.10
31038;DHT22;17702;47.590;7.666;2022-07-03T01:38:13;16.80;83.20
31038;DHT22;17702;47.590;7.666;2022-07-03T01:40:40;17.00;83.00
31038;DHT22;17702;47.590;7.666;2022-07-03T01:43:11;17.00;83.40
31038;DHT22;17702;47.590;7.666;2022-07-03T01:45:41;16.90;83.30
31038;DHT22;17702;47.590;7.666;2022-07-03T01:48:08;16.80;83.20
31038;DHT22;17702;47.590;7.666;2022-07-03T01:50:37;16.90;83.10
31038;DHT22;17702;47.590;7.666;2022-07-03T01:53:04;17.00;83.70
31038;DHT22;17702;47.590;7.666;2022-07-03T01:55:32;16.90;83.40
31038;DHT22;17702;47.590;7.666;2022-07-03T01:57:59;16.80;83.80
31038;DHT22;17702;47.590;7.666;2022-07-03T02:00:25;16.80;84.10
31038;DHT22;17702;47.590;7.666;2022-07-03T02:03:01;16.90;83.70
31038;DHT22;17702;47.590;7.666;2022-07-03T02:05:46;17.10;82.50
31038;DHT22;17702;47.590;7.666;2022-07-03T02:14:13;16.70;82.50
31038;DHT22;17702;47.590;7.666;2022-07-03T02:20:16;16.60;83.30
31038;DHT22;17702;47.590;7.666;2022-07-03T02:22:20;16.50;84.00
31038;DHT22;17702;47.590;7.666;2022-07-03T02:24:46;16.70;84.10
31038;DHT22;17702;47.590;7.666;2022-07-03T02:27:17;16.70;83.70
31038;DHT22;17702;47.590;7.666;2022-07-03T02:29:54;16.60;84.40
31038;DHT22;17702;47.590;7.666;2022-07-03T02:32:21;16.50;84.30
31038;DHT22;17702;47.590;7.666;2022-07-03T02:35:30;16.60;84.30
31038;DHT22;17702;47.590;7.666;2022-07-03T02:40:42;16.50;84.50
31038;DHT22;17702;47.590;7.666;2022-07-03T02:46:10;16.50;85.00
31038;DHT22;17702;47.590;7.666;2022-07-03T02:49:00;16.50;84.50
31038;DHT22;17702;47.590;7.666;2022-07-03T02:51:35;16.60;84.60
31038;DHT22;17702;47.590;7.666;2022-07-03T02:54:15;16.60;84.20
31038;DHT22;17702;47.590;7.666;2022-07-03T02:57:07;16.60;84.00
31038;DHT22;17702;47.590;7.666;2022-07-03T02:59:55;16.60;83.90
31038;DHT22;17702;47.590;7.666;2022-07-03T03:05:11;16.50;83.90
31038;DHT22;17702;47.590;7.666;2022-07-03T03:08:01;16.40;84.30
31038;DHT22;17702;47.590;7.666;2022-07-03T03:10:28;16.40;84.90
31038;DHT22;17702;47.590;7.666;2022-07-03T03:13:11;16.30;84.40
31038;DHT22;17702;47.590;7.666;2022-07-03T03:15:39;16.20;84.60
31038;DHT22;17702;47.590;7.666;2022-07-03T03:18:08;16.10;85.20
31038;DHT22;17702;47.590;7.666;2022-07-03T03:20:36;16.20;85.80
31038;DHT22;17702;47.590;7.666;2022-07-03T03:23:17;16.20;85.30
31038;DHT22;17702;47.590;7.666;2022-07-03T03:25:45;16.20;85.30
31038;DHT22;17702;47.590;7.666;2022-07-03T03:28:13;16.10;84.70
31038;DHT22;17702;47.590;7.666;2022-07-03T03:30:39;16.10;85.10
31038;DHT22;17702;47.590;7.666;2022-07-03T03:33:07;16.20;84.80
31038;DHT22;17702;47.590;7.666;2022-07-03T03:35:38;16.30;84.60
31038;DHT22;17702;47.590;7.666;2022-07-03T03:38:05;16.40;84.20
31038;DHT22;17702;47.590;7.666;2022-07-03T03:40:34;16.50;83.70
31038;DHT22;17702;47.590;7.666;2022-07-03T03:43:01;16.40;84.10
31038;DHT22;17702;47.590;7.666;2022-07-03T03:45:27;16.30;84.40
31038;DHT22;17702;47.590;7.666;2022-07-03T03:47:52;16.10;84.00
31038;DHT22;17702;47.590;7.666;2022-07-03T03:50:18;16.10;85.10
31038;DHT22;17702;47.590;7.666;2022-07-03T03:52:44;16.10;84.70
31038;DHT22;17702;47.590;7.666;2022-07-03T03:55:10;16.00;84.60
31038;DHT22;17702;47.590;7.666;2022-07-03T03:57:36;15.90;84.30
31038;DHT22;17702;47.590;7.666;2022-07-03T04:00:04;15.90;84.90
31038;DHT22;17702;47.590;7.666;2022-07-03T04:02:30;16.00;85.20
31038;DHT22;17702;47.590;7.666;2022-07-03T04:04:55;15.90;85.80
31038;DHT22;17702;47.590;7.666;2022-07-03T04:07:21;15.80;85.20
31038;DHT22;17702;47.590;7.666;2022-07-03T04:09:47;15.80;85.50
31038;DHT22;17702;47.590;7.666;2022-07-03T04:12:12;15.80;85.90
31038;DHT22;17702;47.590;7.666;2022-07-03T04:14:38;15.90;86.10
31038;DHT22;17702;47.590;7.666;2022-07-03T04:17:04;16.00;85.80
31038;DHT22;17702;47.590;7.666;2022-07-03T04:19:29;16.00;85.50
31038;DHT22;17702;47.590;7.666;2022-07-03T04:21:55;16.00;85.80
31038;DHT22;17702;47.590;7.666;2022-07-03T04:24:21;16.00;85.80
31038;DHT22;17702;47.590;7.666;2022-07-03T04:26:47;16.10;85.90
31038;DHT22;17702;47.590;7.666;2022-07-03T04:29:12;16.00;86.00
31038;DHT22;17702;47.590;7.666;2022-07-03T04:31:38;16.00;85.80
31038;DHT22;17702;47.590;7.666;2022-07-03T04:34:05;16.00;85.90
31038;DHT22;17702;47.590;7.666;2022-07-03T04:36:30;16.00;86.20
31038;DHT22;17702;47.590;7.666;2022-07-03T04:38:56;16.00;85.60
31038;DHT22;17702;47.590;7.666;2022-07-03T04:41:21;16.10;85.70
31038;DHT22;17702;47.590;7.666;2022-07-03T04:43:47;16.20;85.30
31038;DHT22;17702;47.590;7.666;2022-07-03T04:46:13;16.30;85.60
31038;DHT22;17702;47.590;7.666;2022-07-03T04:48:39;16.30;85.30
31038;DHT22;17702;47.590;7.666;2022-07-03T04:51:08;16.30;85.40
31038;DHT22;17702;47.590;7.666;2022-07-03T04:53:33;16.30;85.30
31038;DHT22;17702;47.590;7.666;2022-07-03T04:55:59;16.40;84.80
31038;DHT22;17702;47.590;7.666;2022-07-03T04:58:24;16.40;85.10
31038;DHT22;17702;47.590;7.666;2022-07-03T05:00:50;16.40;85.30
31038;DHT22;17702;47.590;7.666;2022-07-03T05:03:16;16.40;85.70
31038;DHT22;17702;47.590;7.666;2022-07-03T05:05:42;16.40;85.80
31038;DHT22;17702;47.590;7.666;2022-07-03T05:08:07;16.50;85.60
31038;DHT22;17702;47.590;7.666;2022-07-03T05:10:33;16.60;85.30
31038;DHT22;17702;47.590;7.666;2022-07-03T05:12:59;16.60;85.20
31038;DHT22;17702;47.590;7.666;2022-07-03T05:15:24;16.70;85.20
31038;DHT22;17702;47.590;7.666;2022-07-03T05:17:50;16.80;86.10
31038;DHT22;17702;47.590;7.666;2022-07-03T05:20:16;17.00;84.90
31038;DHT22;17702;47.590;7.666;2022-07-03T05:22:57;17.00;85.10
31038;DHT22;17702;47.590;7.666;2022-07-03T05:25:24;17.20;84.20
31038;DHT22;17702;47.590;7.666;2022-07-03T05:27:50;17.30;83.90
31038;DHT22;17702;47.590;7.666;2022-07-03T05:30:18;17.40;83.90
31038;DHT22;17702;47.590;7.666;2022-07-03T05:32:44;17.50;83.50
31038;DHT22;17702;47.590;7.666;2022-07-03T05:35:10;17.60;83.40
31038;DHT22;17702;47.590;7.666;2022-07-03T05:37:35;17.70;83.00
31038;DHT22;17702;47.590;7.666;2022-07-03T05:40:01;17.70;83.90
31038;DHT22;17702;47.590;7.666;2022-07-03T05:42:27;17.80;83.20
31038;DHT22;17702;47.590;7.666;2022-07-03T05:44:52;17.90;82.50
31038;DHT22;17702;47.590;7.666;2022-07-03T05:47:18;17.90;82.80
31038;DHT22;17702;47.590;7.666;2022-07-03T05:49:43;18.00;82.50
31038;DHT22;17702;47.590;7.666;2022-07-03T05:52:09;18.10;82.50
31038;DHT22;17702;47.590;7.666;2022-07-03T05:54:34;18.30;83.10
31038;DHT22;17702;47.590;7.666;2022-07-03T05:57:00;18.40;81.90
31038;DHT22;17702;47.590;7.666;2022-07-03T05:59:26;18.50;81.30
31038;DHT22;17702;47.590;7.666;2022-07-03T06:01:51;18.60;81.10
31038;DHT22;17702;47.590;7.666;2022-07-03T06:04:17;18.70;80.80
31038;DHT22;17702;47.590;7.666;2022-07-03T06:06:43;18.80;81.60
31038;DHT22;17702;47.590;7.666;2022-07-03T06:09:08;18.90;80.40
31038;DHT22;17702;47.590;7.666;2022-07-03T06:11:34;19.00;80.40
31038;DHT22;17702;47.590;7.666;2022-07-03T06:13:59;19.10;80.00
31038;DHT22;17702;47.590;7.666;2022-07-03T06:16:25;19.20;80.20
31038;DHT22;17702;47.590;7.666;2022-07-03T06:18:51;19.30;80.30
31038;DHT22;17702;47.590;7.666;2022-07-03T06:21:16;19.40;80.00
31038;DHT22;17702;47.590;7.666;2022-07-03T06:23:42;19.60;80.00
31038;DHT22;17702;47.590;7.666;2022-07-03T06:26:08;19.70;77.60
31038;DHT22;17702;47.590;7.666;2022-07-03T06:28:33;19.80;78.30
31038;DHT22;17702;47.590;7.666;2022-07-03T06:30:59;19.90;78.00
31038;DHT22;17702;47.590;7.666;2022-07-03T06:33:24;20.10;77.80
31038;DHT22;17702;47.590;7.666;2022-07-03T06:35:50;20.20;77.60
31038;DHT22;17702;47.590;7.666;2022-07-03T06:38:16;20.30;77.60
31038;DHT22;17702;47.590;7.666;2022-07-03T06:40:41;20.40;76.10
31038;DHT22;17702;47.590;7.666;2022-07-03T06:43:07;20.70;75.20
31038;DHT22;17702;47.590;7.666;2022-07-03T06:45:33;20.80;74.30
31038;DHT22;17702;47.590;7.666;2022-07-03T06:47:58;21.00;73.00
31038;DHT22;17702;47.590;7.666;2022-07-03T06:50:24;21.10;73.80
31038;DHT22;17702;47.590;7.666;2022-07-03T06:52:50;21.30;74.10
31038;DHT22;17702;47.590;7.666;2022-07-03T06:55:15;21.40;75.70
31038;DHT22;17702;47.590;7.666;2022-07-03T06:57:41;21.60;76.20
31038;DHT22;17702;47.590;7.666;2022-07-03T07:00:07;21.70;73.90
31038;DHT22;17702;47.590;7.666;2022-07-03T07:02:33;21.80;72.30
31038;DHT22;17702;47.590;7.666;2022-07-03T07:04:58;22.00;71.70
31038;DHT22;17702;47.590;7.666;2022-07-03T07:07:24;22.20;68.70
31038;DHT22;17702;47.590;7.666;2022-07-03T07:09:50;22.40;67.20
31038;DHT22;17702;47.590;7.666;2022-07-03T07:12:16;22.50;69.20
31038;DHT22;17702;47.590;7.666;2022-07-03T07:14:42;22.70;66.80
31038;DHT22;17702;47.590;7.666;2022-07-03T07:17:07;22.80;67.20
31038;DHT22;17702;47.590;7.666;2022-07-03T07:19:33;23.00;69.20
31038;DHT22;17702;47.590;7.666;2022-07-03T07:21:59;23.10;70.20
31038;DHT22;17702;47.590;7.666;2022-07-03T07:24:27;23.30;64.50
31038;DHT22;17702;47.590;7.666;2022-07-03T07:26:52;23.40;64.50
31038;DHT22;17702;47.590;7.666;2022-07-03T07:29:18;23.60;66.00
31038;DHT22;17702;47.590;7.666;2022-07-03T07:31:43;23.70;64.60
31038;DHT22;17702;47.590;7.666;2022-07-03T07:34:09;23.90;62.60
31038;DHT22;17702;47.590;7.666;2022-07-03T07:36:35;24.00;65.80
31038;DHT22;17702;47.590;7.666;2022-07-03T07:39:00;24.10;64.90
31038;DHT22;17702;47.590;7.666;2022-07-03T07:41:26;24.20;64.80
31038;DHT22;17702;47.590;7.666;2022-07-03T07:43:52;24.30;58.90
31038;DHT22;17702;47.590;7.666;2022-07-03T07:46:17;24.40;59.20
31038;DHT22;17702;47.590;7.666;2022-07-03T07:48:43;24.60;63.20
31038;DHT22;17702;47.590;7.666;2022-07-03T07:51:10;24.70;61.60
31038;DHT22;17702;47.590;7.666;2022-07-03T07:53:36;24.80;60.00
31038;DHT22;17702;47.590;7.666;2022-07-03T07:56:02;24.90;60.00
31038;DHT22;17702;47.590;7.666;2022-07-03T07:58:27;25.00;56.30
31038;DHT22;17702;47.590;7.666;2022-07-03T08:00:53;25.20;61.00
31038;DHT22;17702;47.590;7.666;2022-07-03T08:03:37;25.30;57.80
31038;DHT22;17702;47.590;7.666;2022-07-03T08:06:21;25.50;58.60
31038;DHT22;17702;47.590;7.666;2022-07-03T08:08:47;25.70;56.30
31038;DHT22;17702;47.590;7.666;2022-07-03T08:11:12;25.80;57.70
31038;DHT22;17702;47.590;7.666;2022-07-03T08:13:38;25.90;53.70
31038;DHT22;17702;47.590;7.666;2022-07-03T08:16:04;26.00;54.80
31038;DHT22;17702;47.590;7.666;2022-07-03T08:18:30;26.10;54.60
31038;DHT22;17702;47.590;7.666;2022-07-03T08:20:55;26.30;56.90
31038;DHT22;17702;47.590;7.666;2022-07-03T08:23:21;26.40;53.70
31038;DHT22;17702;47.590;7.666;2022-07-03T08:25:46;26.40;53.80
31038;DHT22;17702;47.590;7.666;2022-07-03T08:28:12;26.60;55.80
31038;DHT22;17702;47.590;7.666;2022-07-03T08:30:38;26.60;53.40
31038;DHT22;17702;47.590;7.666;2022-07-03T08:33:03;26.80;48.90
31038;DHT22;17702;47.590;7.666;2022-07-03T08:35:29;26.90;48.90
31038;DHT22;17702;47.590;7.666;2022-07-03T08:37:55;27.00;46.90
31038;DHT22;17702;47.590;7.666;2022-07-03T08:40:21;27.10;45.40
31038;DHT22;17702;47.590;7.666;2022-07-03T08:42:54;27.20;46.60
31038;DHT22;17702;47.590;7.666;2022-07-03T08:45:21;27.30;43.80
31038;DHT22;17702;47.590;7.666;2022-07-03T08:47:48;27.20;44.40
31038;DHT22;17702;47.590;7.666;2022-07-03T08:50:16;27.20;44.10
31038;DHT22;17702;47.590;7.666;2022-07-03T08:52:43;27.10;45.70
31038;DHT22;17702;47.590;7.666;2022-07-03T08:55:10;27.20;42.10
31038;DHT22;17702;47.590;7.666;2022-07-03T08:57:37;27.10;42.30
31038;DHT22;17702;47.590;7.666;2022-07-03T09:00:05;27.20;43.60
31038;DHT22;17702;47.590;7.666;2022-07-03T09:02:32;27.40;48.80
31038;DHT22;17702;47.590;7.666;2022-07-03T09:04:59;27.40;42.80
31038;DHT22;17702;47.590;7.666;2022-07-03T09:07:30;27.60;45.50
31038;DHT22;17702;47.590;7.666;2022-07-03T09:09:56;27.70;45.10
31038;DHT22;17702;47.590;7.666;2022-07-03T09:12:23;27.90;45.70
31038;DHT22;17702;47.590;7.666;2022-07-03T09:14:49;28.00;43.70
31038;DHT22;17702;47.590;7.666;2022-07-03T09:17:15;28.20;45.70
31038;DHT22;17702;47.590;7.666;2022-07-03T09:19:48;28.40;43.20
31038;DHT22;17702;47.590;7.666;2022-07-03T09:22:28;28.60;42.90
31038;DHT22;17702;47.590;7.666;2022-07-03T09:25:14;28.70;46.80
31038;DHT22;17702;47.590;7.666;2022-07-03T09:27:53;28.80;44.40
31038;DHT22;17702;47.590;7.666;2022-07-03T09:30:19;28.80;44.60
31038;DHT22;17702;47.590;7.666;2022-07-03T09:32:46;28.90;44.10
31038;DHT22;17702;47.590;7.666;2022-07-03T09:35:25;28.90;43.10
31038;DHT22;17702;47.590;7.666;2022-07-03T09:37:56;29.10;45.30
31038;DHT22;17702;47.590;7.666;2022-07-03T09:40:23;29.20;42.90
31038;DHT22;17702;47.590;7.666;2022-07-03T09:45:22;29.30;46.20
31038;DHT22;17702;47.590;7.666;2022-07-03T09:47:48;29.40;41.00
31038;DHT22;17702;47.590;7.666;2022-07-03T09:50:13;29.40;40.80
31038;DHT22;17702;47.590;7.666;2022-07-03T09:52:42;29.40;39.00
31038;DHT22;17702;47.590;7.666;2022-07-03T09:57:41;29.50;39.30
31038;DHT22;17702;47.590;7.666;2022-07-03T10:00:11;29.50;40.60
31038;DHT22;17702;47.590;7.666;2022-07-03T10:05:16;29.60;38.40
31038;DHT22;17702;47.590;7.666;2022-07-03T10:07:50;29.60;38.50
31038;DHT22;17702;47.590;7.666;2022-07-03T10:10:18;29.40;37.50
31038;DHT22;17702;47.590;7.666;2022-07-03T10:12:44;29.20;38.40
31038;DHT22;17702;47.590;7.666;2022-07-03T10:15:12;29.20;40.20
31038;DHT22;17702;47.590;7.666;2022-07-03T10:17:40;29.20;39.20
31038;DHT22;17702;47.590;7.666;2022-07-03T10:20:06;29.10;38.20
31038;DHT22;17702;47.590;7.666;2022-07-03T10:22:34;29.10;40.20
31038;DHT22;17702;47.590;7.666;2022-07-03T10:25:04;29.20;41.90
31038;DHT22;17702;47.590;7.666;2022-07-03T10:27:31;29.40;42.70
31038;DHT22;17702;47.590;7.666;2022-07-03T10:29:57;29.50;43.60
31038;DHT22;17702;47.590;7.666;2022-07-03T10:32:25;29.60;42.70
31038;DHT22;17702;47.590;7.666;2022-07-03T10:34:52;29.70;40.40
31038;DHT22;17702;47.590;7.666;2022-07-03T10:37:19;29.90;41.60
31038;DHT22;17702;47.590;7.666;2022-07-03T10:40:03;29.90;38.40
31038;DHT22;17702;47.590;7.666;2022-07-03T10:42:54;30.00;41.70
31038;DHT22;17702;47.590;7.666;2022-07-03T10:46:10;30.10;42.10
31038;DHT22;17702;47.590;7.666;2022-07-03T10:51:27;30.30;40.50
31038;DHT22;17702;47.590;7.666;2022-07-03T10:54:16;30.30;40.10
31038;DHT22;17702;47.590;7.666;2022-07-03T11:07:28;30.30;41.10
31038;DHT22;17702;47.590;7.666;2022-07-03T11:13:10;30.40;41.70
31038;DHT22;17702;47.590;7.666;2022-07-03T11:15:38;30.50;38.80
31038;DHT22;17702;47.590;7.666;2022-07-03T11:18:14;30.50;39.50
31038;DHT22;17702;47.590;7.666;2022-07-03T11:23:28;30.60;40.10
31038;DHT22;17702;47.590;7.666;2022-07-03T11:26:01;30.50;37.40
31038;DHT22;17702;47.590;7.666;2022-07-03T11:36:32;30.60;39.70
31038;DHT22;17702;47.590;7.666;2022-07-03T11:41:25;30.60;38.70
31038;DHT22;17702;47.590;7.666;2022-07-03T11:43:52;30.60;39.70
31038;DHT22;17702;47.590;7.666;2022-07-03T11:46:22;30.60;41.30
31038;DHT22;17702;47.590;7.666;2022-07-03T11:48:48;30.60;40.10
31038;DHT22;17702;47.590;7.666;2022-07-03T11:51:14;30.50;39.90
31038;DHT22;17702;47.590;7.666;2022-07-03T11:53:40;30.50;40.70
31038;DHT22;17702;47.590;7.666;2022-07-03T11:56:08;30.50;40.30
31038;DHT22;17702;47.590;7.666;2022-07-03T12:04:02;30.80;41.10
31038;DHT22;17702;47.590;7.666;2022-07-03T12:06:49;30.90;40.60
31038;DHT22;17702;47.590;7.666;2022-07-03T12:09:32;30.80;39.40
31038;DHT22;17702;47.590;7.666;2022-07-03T12:12:07;30.50;39.50
31038;DHT22;17702;47.590;7.666;2022-07-03T12:14:56;30.40;41.40
31038;DHT22;17702;47.590;7.666;2022-07-03T12:17:24;30.40;42.00
31038;DHT22;17702;47.590;7.666;2022-07-03T12:19:55;30.60;43.20
31038;DHT22;17702;47.590;7.666;2022-07-03T12:22:33;30.70;41.90
31038;DHT22;17702;47.590;7.666;2022-07-03T12:27:34;30.60;42.20
31038;DHT22;17702;47.590;7.666;2022-07-03T12:30:00;30.70;43.90
31038;DHT22;17702;47.590;7.666;2022-07-03T12:32:26;30.70;41.60
31038;DHT22;17702;47.590;7.666;2022-07-03T12:34:52;30.70;43.60
31038;DHT22;17702;47.590;7.666;2022-07-03T12:37:34;30.70;42.40
31038;DHT22;17702;47.590;7.666;2022-07-03T12:40:00;30.70;42.30
31038;DHT22;17702;47.590;7.666;2022-07-03T12:42:26;30.60;40.90
31038;DHT22;17702;47.590;7.666;2022-07-03T12:44:56;30.60;44.40
31038;DHT22;17702;47.590;7.666;2022-07-03T12:47:23;30.60;44.50
31038;DHT22;17702;47.590;7.666;2022-07-03T12:49:59;30.70;44.50
31038;DHT22;17702;47.590;7.666;2022-07-03T12:52:27;30.70;42.00
31038;DHT22;17702;47.590;7.666;2022-07-03T12:54:53;30.70;42.90
31038;DHT22;17702;47.590;7.666;2022-07-03T12:57:22;30.80;42.30
31038;DHT22;17702;47.590;7.666;2022-07-03T13:00:11;30.80;44.00
31038;DHT22;17702;47.590;7.666;2022-07-03T13:02:39;30.80;41.60
31038;DHT22;17702;47.590;7.666;2022-07-03T13:05:21;30.70;41.90
31038;DHT22;17702;47.590;7.666;2022-07-03T13:07:50;30.60;42.00
31038;DHT22;17702;47.590;7.666;2022-07-03T13:10:17;30.60;44.60
31038;DHT22;17702;47.590;7.666;2022-07-03T13:12:57;30.60;43.20
31038;DHT22;17702;47.590;7.666;2022-07-03T13:15:32;30.70;44.70
31038;DHT22;17702;47.590;7.666;2022-07-03T13:17:59;30.70;44.80
31038;DHT22;17702;47.590;7.666;2022-07-03T13:20:30;30.70;44.50
31038;DHT22;17702;47.590;7.666;2022-07-03T13:23:01;30.80;43.90
31038;DHT22;17702;47.590;7.666;2022-07-03T13:25:29;30.70;43.10
31038;DHT22;17702;47.590;7.666;2022-07-03T13:28:13;30.60;42.40
31038;DHT22;17702;47.590;7.666;2022-07-03T13:30:41;30.60;42.30
31038;DHT22;17702;47.590;7.666;2022-07-03T13:33:08;30.70;43.70
31038;DHT22;17702;47.590;7.666;2022-07-03T13:35:34;30.70;45.20
31038;DHT22;17702;47.590;7.666;2022-07-03T13:38:01;30.70;43.60
31038;DHT22;17702;47.590;7.666;2022-07-03T13:40:27;30.60;45.40
31038;DHT22;17702;47.590;7.666;2022-07-03T13:42:52;30.50;43.80
31038;DHT22;17702;47.590;7.666;2022-07-03T13:45:18;30.40;43.40
31038;DHT22;17702;47.590;7.666;2022-07-03T13:47:44;30.40;44.90
31038;DHT22;17702;47.590;7.666;2022-07-03T13:50:10;30.30;47.60
31038;DHT22;17702;47.590;7.666;2022-07-03T13:52:36;30.30;45.30
31038;DHT22;17702;47.590;7.666;2022-07-03T13:55:04;30.40;46.10
31038;DHT22;17702;47.590;7.666;2022-07-03T13:57:30;30.40;44.00
31038;DHT22;17702;47.590;7.666;2022-07-03T13:59:57;30.30;45.10
31038;DHT22;17702;47.590;7.666;2022-07-03T14:02:23;30.30;44.30
31038;DHT22;17702;47.590;7.666;2022-07-03T14:04:50;30.20;45.70
31038;DHT22;17702;47.590;7.666;2022-07-03T14:07:16;30.20;47.20
31038;DHT22;17702;47.590;7.666;2022-07-03T14:09:41;30.20;44.10
31038;DHT22;17702;47.590;7.666;2022-07-03T14:12:07;30.10;46.30
31038;DHT22;17702;47.590;7.666;2022-07-03T14:14:34;30.10;44.20
31038;DHT22;17702;47.590;7.666;2022-07-03T14:17:00;30.00;46.40
31038;DHT22;17702;47.590;7.666;2022-07-03T14:19:25;30.00;46.80
31038;DHT22;17702;47.590;7.666;2022-07-03T14:21:51;30.10;45.20
31038;DHT22;17702;47.590;7.666;2022-07-03T14:24:17;30.10;48.40
31038;DHT22;17702;47.590;7.666;2022-07-03T14:26:42;30.10;48.30
31038;DHT22;17702;47.590;7.666;2022-07-03T14:29:26;30.20;50.00
31038;DHT22;17702;47.590;7.666;2022-07-03T14:32:10;30.30;47.70
31038;DHT22;17702;47.590;7.666;2022-07-03T14:34:54;30.40;46.60
31038;DHT22;17702;47.590;7.666;2022-07-03T14:37:20;30.50;46.60
31038;DHT22;17702;47.590;7.666;2022-07-03T14:39:47;30.40;46.80
31038;DHT22;17702;47.590;7.666;2022-07-03T14:42:13;30.30;45.50
31038;DHT22;17702;47.590;7.666;2022-07-03T14:44:38;30.10;46.80
31038;DHT22;17702;47.590;7.666;2022-07-03T14:47:04;30.00;46.10
31038;DHT22;17702;47.590;7.666;2022-07-03T14:49:30;29.80;45.20
31038;DHT22;17702;47.590;7.666;2022-07-03T14:51:55;29.70;46.60
31038;DHT22;17702;47.590;7.666;2022-07-03T14:54:21;29.60;46.50
31038;DHT22;17702;47.590;7.666;2022-07-03T14:56:55;29.40;46.30
31038;DHT22;17702;47.590;7.666;2022-07-03T14:59:44;29.20;48.30
31038;DHT22;17702;47.590;7.666;2022-07-03T15:02:22;29.00;50.70
31038;DHT22;17702;47.590;7.666;2022-07-03T15:05:16;28.90;50.50
31038;DHT22;17702;47.590;7.666;2022-07-03T15:10:31;28.70;50.70
31038;DHT22;17702;47.590;7.666;2022-07-03T15:12:58;28.70;52.40
31038;DHT22;17702;47.590;7.666;2022-07-03T15:15:25;28.70;52.10
31038;DHT22;17702;47.590;7.666;2022-07-03T15:17:53;28.70;51.30
31038;DHT22;17702;47.590;7.666;2022-07-03T15:20:19;28.70;50.60
31038;DHT22;17702;47.590;7.666;2022-07-03T15:22:48;28.70;49.70
31038;DHT22;17702;47.590;7.666;2022-07-03T15:25:17;28.70;50.10
31038;DHT22;17702;47.590;7.666;2022-07-03T15:27:52;28.80;50.00
31038;DHT22;17702;47.590;7.666;2022-07-03T15:30:18;28.80;50.70
31038;DHT22;17702;47.590;7.666;2022-07-03T15:32:48;28.80;49.30
31038;DHT22;17702;47.590;7.666;2022-07-03T15:35:15;28.90;48.70
31038;DHT22;17702;47.590;7.666;2022-07-03T15:38:14;29.00;49.00
31038;DHT22;17702;47.590;7.666;2022-07-03T15:40:52;29.10;47.20
31038;DHT22;17702;47.590;7.666;2022-07-03T15:51:30;28.90;47.60
31038;DHT22;17702;47.590;7.666;2022-07-03T15:53:59;28.80;47.90
31038;DHT22;17702;47.590;7.666;2022-07-03T15:56:31;28.80;48.10
31038;DHT22;17702;47.590;7.666;2022-07-03T15:59:11;28.70;48.60
31038;DHT22;17702;47.590;7.666;2022-07-03T16:01:42;28.60;49.70
31038;DHT22;17702;47.590;7.666;2022-07-03T16:07:09;28.50;47.70
31038;DHT22;17702;47.590;7.666;2022-07-03T16:09:36;28.50;48.50
31038;DHT22;17702;47.590;7.666;2022-07-03T16:12:02;28.50;50.70
31038;DHT22;17702;47.590;7.666;2022-07-03T16:14:31;28.40;51.50
31038;DHT22;17702;47.590;7.666;2022-07-03T16:17:02;28.30;51.60
31038;DHT22;17702;47.590;7.666;2022-07-03T16:19:30;28.30;51.70
31038;DHT22;17702;47.590;7.666;2022-07-03T16:21:59;28.30;52.30
31038;DHT22;17702;47.590;7.666;2022-07-03T16:24:28;28.30;52.00
31038;DHT22;17702;47.590;7.666;2022-07-03T16:26:54;28.30;50.50
31038;DHT22;17702;47.590;7.666;2022-07-03T16:29:20;28.40;51.50
31038;DHT22;17702;47.590;7.666;2022-07-03T16:31:49;28.40;52.30
31038;DHT22;17702;47.590;7.666;2022-07-03T16:34:25;28.40;49.90
31038;DHT22;17702;47.590;7.666;2022-07-03T16:36:53;28.40;49.00
31038;DHT22;17702;47.590;7.666;2022-07-03T16:39:33;28.40;50.40
31038;DHT22;17702;47.590;7.666;2022-07-03T16:42:00;28.50;49.70
31038;DHT22;17702;47.590;7.666;2022-07-03T16:44:27;28.50;49.60
31038;DHT22;17702;47.590;7.666;2022-07-03T16:46:55;28.50;49.20
31038;DHT22;17702;47.590;7.666;2022-07-03T16:49:25;28.50;48.80
31038;DHT22;17702;47.590;7.666;2022-07-03T16:51:56;28.40;50.00
31038;DHT22;17702;47.590;7.666;2022-07-03T16:54:26;28.40;49.30
31038;DHT22;17702;47.590;7.666;2022-07-03T16:56:52;28.40;50.30
31038;DHT22;17702;47.590;7.666;2022-07-03T16:59:18;28.30;49.80
31038;DHT22;17702;47.590;7.666;2022-07-03T17:01:44;28.20;50.30
31038;DHT22;17702;47.590;7.666;2022-07-03T17:04:10;28.20;51.60
31038;DHT22;17702;47.590;7.666;2022-07-03T17:06:37;28.20;51.50
31038;DHT22;17702;47.590;7.666;2022-07-03T17:09:04;28.10;51.70
31038;DHT22;17702;47.590;7.666;2022-07-03T17:11:31;28.10;50.50
31038;DHT22;17702;47.590;7.666;2022-07-03T17:13:57;28.10;48.80
31038;DHT22;17702;47.590;7.666;2022-07-03T17:16:25;28.10;50.40